createdAt,value
2023-03-28T00:00:17.932Z,100056.81
2023-03-28T00:03:07.052Z,100053.22
2023-03-28T00:05:37.427Z,100055.06
2023-03-28T00:08:08.095Z,100051.63
2023-03-28T00:10:37.147Z,100050.84
2023-03-28T00:13:06.052Z,100062.84
2023-03-28T00:15:35.483Z,100046.47
2023-03-28T00:18:05.670Z,100056.00
2023-03-28T00:20:39.157Z,100045.66
2023-03-28T00:23:10.085Z,100036.09
2023-03-28T00:25:41.802Z,100037.94
2023-03-28T00:28:11.370Z,100035.34
2023-03-28T00:30:40.495Z,100033.59
2023-03-28T00:33:09.229Z,100037.00
2023-03-28T00:35:38.405Z,100031.06
2023-03-28T00:38:08.554Z,100037.97
2023-03-28T00:40:38.894Z,100040.66
2023-03-28T00:43:07.904Z,100034.78
2023-03-28T00:45:36.993Z,100042.44
2023-03-28T00:52:43.929Z,100034.13
2023-03-28T00:55:22.045Z,100033.22
2023-03-28T00:57:53.135Z,100033.44
2023-03-28T01:00:23.011Z,100037.72
2023-03-28T01:02:58.462Z,100030.19
2023-03-28T01:05:31.145Z,100046.59
2023-03-28T01:08:08.705Z,100028.50
2023-03-28T01:10:39.009Z,100027.56
2023-03-28T01:13:11.629Z,100029.34
2023-03-28T01:15:41.228Z,100030.16
2023-03-28T01:18:13.474Z,100021.84
2023-03-28T01:21:37.718Z,100011.00
2023-03-28T01:24:51.505Z,100014.19
2023-03-28T01:27:33.741Z,100004.06
2023-03-28T01:30:57.480Z,100001.63
2023-03-28T01:34:24.909Z,99982.91
2023-03-28T01:37:15.743Z,99993.25
2023-03-28T01:40:15.274Z,99989.88
2023-03-28T01:43:04.059Z,99991.59
2023-03-28T01:45:49.223Z,100003.78
2023-03-28T01:48:31.495Z,99994.41
2023-03-28T01:51:14.633Z,99999.72
2023-03-28T01:53:52.361Z,100003.03
2023-03-28T01:56:31.125Z,99997.88
2023-03-28T01:59:17.749Z,99994.53
2023-03-28T02:02:28.569Z,99997.22
2023-03-28T02:05:07.463Z,99999.81
2023-03-28T02:07:45.385Z,99992.19
2023-03-28T02:10:22.744Z,99989.50
2023-03-28T02:13:05.344Z,99991.34
2023-03-28T02:15:55.496Z,99998.22
2023-03-28T02:18:35.022Z,99989.59
2023-03-28T02:26:33.570Z,99984.72
2023-03-28T02:29:21.061Z,99993.25
2023-03-28T02:31:59.707Z,99994.94
2023-03-28T02:34:28.755Z,99988.88
2023-03-28T02:37:07.560Z,99988.97
2023-03-28T02:39:53.269Z,99988.94
2023-03-28T02:43:19.353Z,99976.97
2023-03-28T02:46:13.693Z,99981.31
2023-03-28T02:49:21.777Z,99984.88
2023-03-28T02:52:04.609Z,99984.91
2023-03-28T02:54:44.189Z,99978.03
2023-03-28T02:57:44.230Z,99966.06
2023-03-28T03:00:20.571Z,99968.63
2023-03-28T03:02:52.493Z,99960.16
2023-03-28T03:05:22.868Z,99965.22
2023-03-28T03:07:52.317Z,99951.41
2023-03-28T03:15:01.085Z,99955.88
2023-03-28T03:17:49.844Z,99961.06
2023-03-28T03:20:27.186Z,99955.16
2023-03-28T03:22:56.728Z,99955.94
2023-03-28T03:25:26.596Z,99958.53
2023-03-28T03:28:16.351Z,99964.47
2023-03-28T03:30:46.024Z,99962.88
2023-03-28T03:33:34.486Z,99960.41
2023-03-28T03:36:09.769Z,99958.78
2023-03-28T03:38:38.644Z,99952.75
2023-03-28T03:41:09.231Z,99948.47
2023-03-28T03:43:38.444Z,99945.13
2023-03-28T03:46:08.571Z,99950.25
2023-03-28T03:53:19.275Z,99942.34
2023-03-28T03:56:02.128Z,99947.50
2023-03-28T04:03:26.941Z,99951.00
2023-03-28T04:05:58.151Z,99942.44
2023-03-28T04:08:28.976Z,99949.44
2023-03-28T04:10:57.905Z,99940.03
2023-03-28T04:13:27.504Z,99935.78
2023-03-28T04:16:01.324Z,99934.91
2023-03-28T04:18:50.936Z,99940.06
2023-03-28T04:21:28.482Z,99934.91
2023-03-28T04:24:01.952Z,99939.94
2023-03-28T04:26:42.564Z,99931.38
2023-03-28T04:29:14.480Z,99933.91
2023-03-28T04:31:50.736Z,99927.09
2023-03-28T04:34:29.788Z,99935.69
2023-03-28T04:37:09.859Z,99932.34
2023-03-28T04:39:49.627Z,99927.00
2023-03-28T04:42:39.445Z,99920.06
2023-03-28T04:45:31.391Z,99917.66
2023-03-28T04:48:07.961Z,99927.88
2023-03-28T04:50:37.018Z,99928.44
2023-03-28T04:53:06.332Z,99929.22
2023-03-28T04:55:37.866Z,99938.22
2023-03-28T04:58:20.627Z,99936.25
2023-03-28T05:00:50.600Z,99931.84
2023-03-28T05:03:40.051Z,99935.88
2023-03-28T05:06:09.614Z,99930.66
2023-03-28T05:08:38.931Z,99935.78
2023-03-28T05:11:09.481Z,99926.78
2023-03-28T05:13:38.968Z,99937.97
2023-03-28T05:16:20.584Z,99928.16
2023-03-28T05:19:12.457Z,99921.84
2023-03-28T05:22:01.857Z,99930.13
2023-03-28T05:24:31.694Z,99929.00
2023-03-28T05:27:02.169Z,99938.91
2023-03-28T05:29:31.041Z,99933.38
2023-03-28T05:32:00.179Z,99936.66
2023-03-28T05:34:34.249Z,99923.59
2023-03-28T05:37:04.885Z,99933.56
2023-03-28T05:39:44.525Z,99935.94
2023-03-28T05:42:16.241Z,99934.03
2023-03-28T05:44:45.530Z,99936.25
2023-03-28T05:47:55.726Z,99940.31
2023-03-28T05:50:27.511Z,99942.00
2023-03-28T05:53:07.541Z,99936.75
2023-03-28T05:55:36.350Z,99938.25
2023-03-28T05:58:25.558Z,99939.84
2023-03-28T06:00:54.762Z,99944.28
2023-03-28T06:03:28.114Z,99944.22
2023-03-28T06:05:57.323Z,99947.69
2023-03-28T06:08:29.441Z,99945.00
2023-03-28T06:11:02.967Z,99944.72
2023-03-28T06:13:40.817Z,99947.25
2023-03-28T06:16:11.496Z,99948.38
2023-03-28T06:18:40.713Z,99954.94
2023-03-28T06:21:09.738Z,99950.53
2023-03-28T06:23:39.550Z,99954.94
2023-03-28T06:26:09.853Z,99965.19
2023-03-28T06:28:44.530Z,99962.44
2023-03-28T06:31:22.688Z,99963.09
2023-03-28T06:33:52.176Z,99964.59
2023-03-28T06:36:23.121Z,99962.31
2023-03-28T06:38:53.655Z,99968.78
2023-03-28T06:41:24.945Z,99963.38
2023-03-28T06:43:55.463Z,99970.50
2023-03-28T06:46:59.851Z,99969.28
2023-03-28T06:49:29.253Z,99969.69
2023-03-28T06:52:31.357Z,99971.09
2023-03-28T06:55:02.398Z,99975.44
2023-03-28T06:57:31.252Z,99978.56
2023-03-28T07:04:50.358Z,99977.16
2023-03-28T07:07:19.779Z,99978.50
2023-03-28T07:09:51.950Z,99993.59
2023-03-28T07:12:21.337Z,99995.97
2023-03-28T07:14:50.744Z,99995.25
2023-03-28T07:17:20.789Z,99996.19
2023-03-28T07:19:53.652Z,100004.34
2023-03-28T07:22:24.222Z,100001.75
2023-03-28T07:24:53.364Z,100009.13
2023-03-28T07:27:24.961Z,100017.16
2023-03-28T07:34:28.839Z,100012.19
2023-03-28T07:36:59.154Z,100019.63
2023-03-28T07:39:47.889Z,100027.66
2023-03-28T07:42:19.791Z,100026.22
2023-03-28T07:44:48.834Z,100012.28
2023-03-28T07:47:18.290Z,100021.31
2023-03-28T07:49:47.805Z,100019.25
2023-03-28T07:52:18.300Z,100014.44
2023-03-28T07:54:47.576Z,100023.41
2023-03-28T07:57:16.569Z,100020.44
2023-03-28T07:59:57.633Z,100034.63
2023-03-28T08:02:27.230Z,100033.53
2023-03-28T08:04:56.455Z,100032.59
2023-03-28T08:07:29.132Z,100037.78
2023-03-28T08:09:59.024Z,100035.84
2023-03-28T08:12:32.104Z,100040.94
2023-03-28T08:15:01.445Z,100040.72
2023-03-28T08:17:31.575Z,100038.69
2023-03-28T08:20:00.922Z,100050.50
2023-03-28T08:22:31.608Z,100040.41
2023-03-28T08:25:20.539Z,100053.31
2023-03-28T08:27:50.118Z,100058.38
2023-03-28T08:30:19.278Z,100050.91
2023-03-28T08:32:57.673Z,100043.28
2023-03-28T08:35:27.195Z,100053.66
2023-03-28T08:38:01.465Z,100046.97
2023-03-28T08:40:31.842Z,100048.16
2023-03-28T08:43:40.365Z,100052.88
2023-03-28T08:46:17.084Z,100062.63
2023-03-28T08:48:48.518Z,100064.53
2023-03-28T08:51:27.127Z,100068.38
2023-03-28T08:54:12.728Z,100066.09
2023-03-28T08:56:48.267Z,100067.16
2023-03-28T09:03:50.092Z,100074.50
2023-03-28T09:06:30.922Z,100068.53
2023-03-28T09:09:23.690Z,100080.34
2023-03-28T09:12:27.705Z,100086.53
2023-03-28T09:15:35.683Z,100101.84
2023-03-28T09:18:38.815Z,100115.53
2023-03-28T09:21:20.142Z,100134.19
2023-03-28T09:24:24.246Z,100133.88
2023-03-28T09:27:13.787Z,100130.97
2023-03-28T09:29:46.347Z,100127.91
2023-03-28T09:32:27.574Z,100136.59
2023-03-28T09:34:57.278Z,100139.59
2023-03-28T09:37:33.492Z,100142.34
2023-03-28T09:40:17.916Z,100150.34
2023-03-28T09:43:19.032Z,100157.44
2023-03-28T09:46:08.653Z,100153.31
2023-03-28T09:48:58.545Z,100165.31
2023-03-28T09:51:33.245Z,100175.63
2023-03-28T09:54:07.768Z,100173.47
2023-03-28T09:56:42.111Z,100181.44
2023-03-28T09:59:36.529Z,100187.47
2023-03-28T10:02:29.834Z,100196.16
2023-03-28T10:05:05.566Z,100203.03
2023-03-28T10:07:59.640Z,100205.91
2023-03-28T10:10:36.279Z,100204.84
2023-03-28T10:13:11.804Z,100216.25
2023-03-28T10:15:48.123Z,100223.94
2023-03-28T10:18:35.931Z,100216.97
2023-03-28T10:21:33.566Z,100222.84
2023-03-28T10:24:17.627Z,100233.09
2023-03-28T10:26:59.920Z,100245.66
2023-03-28T10:34:29.029Z,100254.78
2023-03-28T10:37:27.489Z,100261.91
2023-03-28T10:40:29.975Z,100255.44
2023-03-28T10:43:37.927Z,100260.75
2023-03-28T10:46:23.536Z,100280.63
2023-03-28T10:49:14.157Z,100289.56
2023-03-28T10:51:46.893Z,100280.88
2023-03-28T10:54:34.763Z,100290.47
2023-03-28T10:57:16.959Z,100298.34
2023-03-28T10:59:53.843Z,100293.72
2023-03-28T11:02:47.879Z,100301.56
2023-03-28T11:05:38.592Z,100303.44
2023-03-28T11:08:40.659Z,100306.28
2023-03-28T11:11:37.765Z,100315.94
2023-03-28T11:14:23.436Z,100332.16
2023-03-28T11:17:03.915Z,100318.63
2023-03-28T11:20:30.362Z,100332.66
2023-03-28T11:23:38.079Z,100333.22
2023-03-28T11:26:55.692Z,100336.75
2023-03-28T11:29:44.001Z,100329.03
2023-03-28T11:32:25.495Z,100340.19
2023-03-28T11:35:08.197Z,100345.53
2023-03-28T11:37:46.186Z,100344.56
2023-03-28T11:40:29.267Z,100339.53
2023-03-28T11:43:07.509Z,100340.50
2023-03-28T11:45:52.121Z,100349.09
2023-03-28T11:48:32.011Z,100360.44
2023-03-28T11:51:12.838Z,100362.00
2023-03-28T11:54:02.598Z,100372.03
2023-03-28T11:56:53.698Z,100365.03
2023-03-28T11:59:48.034Z,100371.41
2023-03-28T12:02:41.028Z,100374.91
2023-03-28T12:05:24.509Z,100388.94
2023-03-28T12:08:05.559Z,100381.94
2023-03-28T12:10:38.381Z,100388.59
2023-03-28T12:13:27.084Z,100393.84
2023-03-28T12:16:08.718Z,100402.31
2023-03-28T12:18:45.055Z,100395.22
2023-03-28T12:21:34.406Z,100394.81
2023-03-28T12:24:14.759Z,100410.16
2023-03-28T12:27:07.774Z,100411.97
2023-03-28T12:29:47.126Z,100405.00
2023-03-28T12:32:38.970Z,100391.44
2023-03-28T12:35:22.473Z,100409.22
2023-03-28T12:38:12.257Z,100408.78
2023-03-28T12:40:56.120Z,100409.97
2023-03-28T12:43:42.634Z,100415.81
2023-03-28T12:46:19.548Z,100414.66
2023-03-28T12:48:57.818Z,100427.53
2023-03-28T12:51:38.867Z,100423.13
2023-03-28T12:54:24.178Z,100426.84
2023-03-28T12:57:06.226Z,100417.66
2023-03-28T13:00:13.583Z,100432.06
2023-03-28T13:03:28.008Z,100426.69
2023-03-28T13:06:10.543Z,100425.25
2023-03-28T13:09:05.750Z,100430.75
2023-03-28T13:11:50.194Z,100432.63
2023-03-28T13:14:38.608Z,100428.63
2023-03-28T13:17:22.685Z,100439.97
2023-03-28T13:19:55.851Z,100451.97
2023-03-28T13:22:32.941Z,100452.19
2023-03-28T13:25:32.626Z,100450.22
2023-03-28T13:28:23.260Z,100451.19
2023-03-28T13:31:09.005Z,100447.53
2023-03-28T13:33:42.229Z,100455.00
2023-03-28T13:36:30.779Z,100453.75
2023-03-28T13:39:22.655Z,100461.19
2023-03-28T13:42:01.385Z,100461.19
2023-03-28T13:44:41.535Z,100470.66
2023-03-28T13:47:22.932Z,100468.50
2023-03-28T13:49:59.738Z,100486.31
2023-03-28T13:52:29.861Z,100482.50
2023-03-28T13:55:04.142Z,100482.84
2023-03-28T13:57:33.074Z,100483.13
2023-03-28T14:00:07.978Z,100482.06
2023-03-28T14:02:47.064Z,100481.63
2023-03-28T14:05:23.844Z,100490.16
2023-03-28T14:07:56.818Z,100494.34
2023-03-28T14:10:32.613Z,100491.75
2023-03-28T14:13:06.407Z,100496.06
2023-03-28T14:15:39.853Z,100503.53
2023-03-28T14:18:17.262Z,100500.97
2023-03-28T14:20:47.616Z,100507.13
2023-03-28T14:23:31.249Z,100499.00
2023-03-28T14:26:02.714Z,100509.09
2023-03-28T14:28:32.782Z,100521.09
2023-03-28T14:31:02.601Z,100518.97
2023-03-28T14:33:37.695Z,100521.47
2023-03-28T14:36:10.922Z,100517.91
2023-03-28T14:38:41.188Z,100522.06
2023-03-28T14:41:19.306Z,100526.03
2023-03-28T14:43:53.506Z,100527.50
2023-03-28T14:46:26.174Z,100530.94
2023-03-28T14:48:59.013Z,100533.78
2023-03-28T14:51:29.146Z,100529.38
2023-03-28T14:53:59.232Z,100527.72
2023-03-28T14:56:29.852Z,100531.97
2023-03-28T14:59:05.577Z,100526.22
2023-03-28T15:01:35.538Z,100539.63
2023-03-28T15:08:38.305Z,100555.03
2023-03-28T15:11:15.580Z,100553.34
2023-03-28T15:18:25.278Z,100570.44
2023-03-28T15:20:58.221Z,100579.41
2023-03-28T15:23:31.782Z,100564.97
2023-03-28T15:26:06.367Z,100571.19
2023-03-28T15:28:37.613Z,100582.63
2023-03-28T15:31:08.380Z,100580.97
2023-03-28T15:33:37.631Z,100578.84
2023-03-28T15:36:13.399Z,100580.63
2023-03-28T15:43:41.429Z,100592.44
2023-03-28T15:46:14.482Z,100592.09
2023-03-28T15:48:44.118Z,100591.31
2023-03-28T15:51:18.423Z,100606.13
2023-03-28T15:53:50.191Z,100604.75
2023-03-28T15:56:26.905Z,100607.78
2023-03-28T15:59:03.979Z,100609.09
2023-03-28T16:01:34.660Z,100623.97
2023-03-28T16:04:23.833Z,100643.81
2023-03-28T16:06:58.571Z,100647.91
2023-03-28T16:09:27.626Z,100647.56
2023-03-28T16:12:01.209Z,100648.28
2023-03-28T16:14:52.163Z,100651.28
2023-03-28T16:17:32.980Z,100660.19
2023-03-28T16:20:17.276Z,100664.91
2023-03-28T16:22:47.319Z,100656.59
2023-03-28T16:25:16.964Z,100672.84
2023-03-28T16:27:45.885Z,100657.44
2023-03-28T16:30:26.541Z,100667.91
2023-03-28T16:32:55.952Z,100669.06
2023-03-28T16:35:27.153Z,100671.47
2023-03-28T16:37:56.801Z,100670.56
2023-03-28T16:40:26.076Z,100686.06
2023-03-28T16:42:55.162Z,100690.28
2023-03-28T16:45:25.616Z,100690.44
2023-03-28T16:47:54.910Z,100692.97
2023-03-28T16:50:23.998Z,100698.16
2023-03-28T16:57:25.716Z,100698.19
2023-03-28T16:59:54.528Z,100701.59
2023-03-28T17:02:25.133Z,100708.50
2023-03-28T17:04:54.029Z,100705.00
2023-03-28T17:07:23.414Z,100714.63
2023-03-28T17:09:52.431Z,100699.31
2023-03-28T17:12:23.934Z,100721.56
2023-03-28T17:14:52.722Z,100727.69
2023-03-28T17:17:21.772Z,100730.25
2023-03-28T17:19:51.873Z,100736.16
2023-03-28T17:22:21.050Z,100742.88
2023-03-28T17:24:50.910Z,100741.97
2023-03-28T17:27:21.250Z,100765.03
2023-03-28T17:29:50.061Z,100764.88
2023-03-28T17:32:19.137Z,100761.63
2023-03-28T17:34:49.078Z,100766.50
2023-03-28T17:37:20.439Z,100767.41
2023-03-28T17:39:49.534Z,100768.28
2023-03-28T17:42:18.409Z,100778.66
2023-03-28T17:44:48.567Z,100775.25
2023-03-28T17:47:17.435Z,100780.34
2023-03-28T17:49:46.582Z,100788.06
2023-03-28T17:52:15.467Z,100789.84
2023-03-28T17:54:46.009Z,100790.47
2023-03-28T17:57:14.943Z,100790.50
2023-03-28T17:59:44.630Z,100799.19
2023-03-28T18:02:13.643Z,100800.31
2023-03-28T18:04:44.871Z,100805.44
2023-03-28T18:07:25.141Z,100804.50
2023-03-28T18:09:55.924Z,100808.84
2023-03-28T18:12:24.777Z,100807.00
2023-03-28T18:14:53.803Z,100814.91
2023-03-28T18:17:22.983Z,100814.78
2023-03-28T18:19:52.164Z,100814.88
2023-03-28T18:22:21.047Z,100816.66
2023-03-28T18:24:50.058Z,100814.94
2023-03-28T18:27:20.158Z,100820.91
2023-03-28T18:29:49.375Z,100820.94
2023-03-28T18:32:18.135Z,100819.28
2023-03-28T18:34:48.132Z,100815.97
2023-03-28T18:37:17.216Z,100821.91
2023-03-28T18:39:46.333Z,100819.44
2023-03-28T18:42:15.095Z,100823.59
2023-03-28T18:44:45.674Z,100824.56
2023-03-28T18:47:14.582Z,100822.78
2023-03-28T18:49:43.625Z,100831.47
2023-03-28T18:52:12.404Z,100833.16
2023-03-28T18:54:45.839Z,100828.88
2023-03-28T18:57:15.041Z,100831.41
2023-03-28T18:59:45.609Z,100830.59
2023-03-28T19:02:15.350Z,100831.34
2023-03-28T19:04:44.518Z,100826.13
2023-03-28T19:07:14.542Z,100839.97
2023-03-28T19:09:44.053Z,100835.75
2023-03-28T19:12:13.564Z,100831.25
2023-03-28T19:14:42.616Z,100832.25
2023-03-28T19:17:12.805Z,100829.56
2023-03-28T19:19:41.656Z,100830.38
2023-03-28T19:22:11.287Z,100829.59
2023-03-28T19:24:40.161Z,100832.06
2023-03-28T19:27:09.217Z,100832.06
2023-03-28T19:29:37.916Z,100838.13
2023-03-28T19:32:07.332Z,100831.28
2023-03-28T19:34:37.404Z,100831.13
2023-03-28T19:37:06.932Z,100836.22
2023-03-28T19:39:35.685Z,100837.03
2023-03-28T19:42:04.959Z,100835.31
2023-03-28T19:49:07.017Z,100841.44
2023-03-28T19:51:37.190Z,100848.16
2023-03-28T19:54:06.572Z,100843.03
2023-03-28T19:56:35.736Z,100843.06
2023-03-28T19:59:04.757Z,100843.78
2023-03-28T20:01:33.505Z,100848.72
2023-03-28T20:04:02.524Z,100850.69
2023-03-28T20:06:31.330Z,100849.72
2023-03-28T20:13:32.922Z,100854.03
2023-03-28T20:16:03.935Z,100857.41
2023-03-28T20:18:33.910Z,100856.53
2023-03-28T20:21:05.649Z,100852.19
2023-03-28T20:23:35.635Z,100853.00
2023-03-28T20:26:18.780Z,100854.84
2023-03-28T20:28:56.384Z,100850.47
2023-03-28T20:31:25.251Z,100852.28
2023-03-28T20:33:55.416Z,100853.00
2023-03-28T20:36:24.822Z,100860.91
2023-03-28T20:38:55.015Z,100859.84
2023-03-28T20:41:24.186Z,100854.53
2023-03-28T20:43:55.330Z,100857.97
2023-03-28T20:46:25.149Z,100847.69
2023-03-28T20:48:56.954Z,100848.38
2023-03-28T20:51:29.240Z,100845.84
2023-03-28T20:54:01.003Z,100849.22
2023-03-28T20:56:32.678Z,100851.13
2023-03-28T20:59:04.448Z,100854.69
2023-03-28T21:01:33.650Z,100853.81
2023-03-28T21:04:02.836Z,100855.66
2023-03-28T21:06:35.297Z,100847.06
2023-03-28T21:09:07.708Z,100851.19
2023-03-28T21:11:39.864Z,100854.63
2023-03-28T21:14:14.239Z,100852.09
2023-03-28T21:16:43.504Z,100859.75
2023-03-28T21:19:12.753Z,100866.69
2023-03-28T21:21:41.627Z,100860.72
2023-03-28T21:24:10.659Z,100863.38
2023-03-28T21:26:39.424Z,100874.53
2023-03-28T21:29:10.800Z,100866.97
2023-03-28T21:31:39.672Z,100871.97
2023-03-28T21:34:09.031Z,100876.41
2023-03-28T21:36:37.810Z,100867.78
2023-03-28T21:39:07.923Z,100877.34
2023-03-28T21:41:38.118Z,100872.06
2023-03-28T21:44:07.431Z,100873.81
2023-03-28T21:46:37.506Z,100874.78
2023-03-28T21:49:07.100Z,100874.81
2023-03-28T21:51:36.037Z,100871.38
2023-03-28T21:54:06.543Z,100876.56
2023-03-28T21:56:35.414Z,100877.47
2023-03-28T21:59:04.506Z,100876.56
2023-03-28T22:01:33.257Z,100877.38
2023-03-28T22:08:36.069Z,100874.88
2023-03-28T22:11:14.469Z,100878.28
2023-03-28T22:13:45.391Z,100869.88
2023-03-28T22:16:15.530Z,100874.13
2023-03-28T22:18:49.796Z,100868.84
2023-03-28T22:21:19.022Z,100864.50
2023-03-28T22:23:49.351Z,100879.28
2023-03-28T22:26:18.416Z,100878.53
2023-03-28T22:28:49.129Z,100870.84
2023-03-28T22:31:17.930Z,100876.81
2023-03-28T22:33:47.168Z,100865.69
2023-03-28T22:36:15.960Z,100874.25
2023-03-28T22:38:45.390Z,100875.25
2023-03-28T22:41:15.809Z,100866.56
2023-03-28T22:43:45.105Z,100873.50
2023-03-28T22:46:16.469Z,100877.81
2023-03-28T22:48:45.701Z,100882.13
2023-03-28T22:51:15.887Z,100882.13
2023-03-28T22:53:45.388Z,100877.00
2023-03-28T22:56:16.123Z,100884.91
2023-03-28T22:58:45.155Z,100878.81
2023-03-28T23:01:14.274Z,100879.75
2023-03-28T23:03:43.342Z,100880.63
2023-03-28T23:06:13.280Z,100880.63
2023-03-28T23:08:42.504Z,100885.91
2023-03-28T23:11:11.250Z,100873.81
2023-03-28T23:13:41.793Z,100878.19
2023-03-28T23:16:11.060Z,100885.13
2023-03-28T23:18:40.079Z,100877.38
2023-03-28T23:21:09.023Z,100877.41
2023-03-28T23:23:38.986Z,100874.91
2023-03-28T23:26:08.242Z,100883.56
2023-03-28T23:28:37.224Z,100880.13
2023-03-28T23:31:08.038Z,100880.91
2023-03-28T23:33:37.138Z,100882.88
2023-03-28T23:36:07.825Z,100880.28
2023-03-28T23:38:36.910Z,100883.78
2023-03-28T23:41:06.606Z,100889.81
2023-03-28T23:43:35.714Z,100887.19
2023-03-28T23:46:06.527Z,100888.13
2023-03-28T23:48:36.227Z,100887.28
2023-03-28T23:51:05.426Z,100882.06
2023-03-28T23:53:34.582Z,100891.56
2023-03-28T23:56:03.892Z,100892.44
2023-03-28T23:58:32.984Z,100898.53
